createdAt,value
2018-07-17T00:00:16.147Z,0
2018-07-17T00:00:41.703Z,0
2018-07-17T00:01:07.303Z,0
2018-07-17T00:01:32.867Z,0
2018-07-17T00:01:58.462Z,0
2018-07-17T00:02:24.059Z,0
2018-07-17T00:02:49.645Z,0
2018-07-17T00:03:15.203Z,0
2018-07-17T00:03:40.766Z,0
2018-07-17T00:04:06.367Z,0
2018-07-17T00:04:31.959Z,0
2018-07-17T00:04:57.544Z,0
2018-07-17T00:05:23.108Z,0
2018-07-17T00:05:48.709Z,0
2018-07-17T00:06:14.279Z,0
2018-07-17T00:06:39.863Z,0
2018-07-17T00:07:05.447Z,0
2018-07-17T00:07:31.035Z,0
2018-07-17T00:07:56.599Z,0
2018-07-17T00:08:22.182Z,0
2018-07-17T00:08:47.759Z,0
2018-07-17T00:09:13.322Z,0
2018-07-17T00:09:38.905Z,0
2018-07-17T00:10:04.470Z,0
2018-07-17T00:10:30.063Z,0
2018-07-17T00:10:55.641Z,0
2018-07-17T00:11:21.201Z,0
2018-07-17T00:11:46.827Z,0
2018-07-17T00:12:12.355Z,0
2018-07-17T00:12:37.946Z,0
2018-07-17T00:13:03.485Z,0
2018-07-17T00:13:29.070Z,0
2018-07-17T00:13:54.650Z,0
2018-07-17T00:14:20.217Z,0
2018-07-17T00:14:45.774Z,0
2018-07-17T00:15:11.357Z,0
2018-07-17T00:15:36.951Z,0
2018-07-17T00:16:02.517Z,0
2018-07-17T00:16:28.093Z,0
2018-07-17T00:16:53.675Z,0
2018-07-17T00:17:19.253Z,0
2018-07-17T00:17:44.817Z,0
2018-07-17T00:18:10.376Z,0
2018-07-17T00:18:35.957Z,0
2018-07-17T00:19:01.559Z,0
2018-07-17T00:19:27.144Z,0
2018-07-17T00:19:52.708Z,0
2018-07-17T00:20:18.285Z,0
2018-07-17T00:20:43.845Z,0
2018-07-17T00:21:09.409Z,0
2018-07-17T00:21:34.977Z,0
2018-07-17T00:22:00.563Z,0
2018-07-17T00:22:26.156Z,0
2018-07-17T00:22:51.748Z,0
2018-07-17T00:23:17.343Z,0
2018-07-17T00:23:42.966Z,0
2018-07-17T00:24:08.562Z,0
2018-07-17T00:24:34.157Z,0
2018-07-17T00:24:59.738Z,0
2018-07-17T00:25:25.304Z,0
2018-07-17T00:25:50.886Z,0
2018-07-17T00:26:16.458Z,0
2018-07-17T00:26:42.031Z,0
2018-07-17T00:27:07.636Z,0
2018-07-17T00:27:33.196Z,0
2018-07-17T00:27:58.768Z,0
2018-07-17T00:28:24.335Z,0
2018-07-17T00:28:49.887Z,0
2018-07-17T00:29:15.461Z,0
2018-07-17T00:29:41.040Z,0
2018-07-17T00:30:06.605Z,0
2018-07-17T00:30:32.171Z,0
2018-07-17T00:30:57.762Z,0
2018-07-17T00:31:23.339Z,0
2018-07-17T00:31:48.908Z,0
2018-07-17T00:32:14.493Z,0
2018-07-17T00:32:40.071Z,0
2018-07-17T00:33:05.669Z,0
2018-07-17T00:33:31.251Z,0
2018-07-17T00:33:56.833Z,0
2018-07-17T00:34:22.412Z,0
2018-07-17T00:34:47.977Z,0
2018-07-17T00:35:13.552Z,0
2018-07-17T00:35:39.138Z,0
2018-07-17T00:36:04.738Z,0
2018-07-17T00:36:30.319Z,0
2018-07-17T00:36:55.886Z,0
2018-07-17T00:37:21.461Z,0
2018-07-17T00:37:47.035Z,0
2018-07-17T00:38:12.596Z,0
2018-07-17T00:38:38.159Z,0
2018-07-17T00:39:03.726Z,0
2018-07-17T00:39:29.299Z,0
2018-07-17T00:39:54.873Z,0
2018-07-17T00:40:20.437Z,0
2018-07-17T00:40:46.023Z,0
2018-07-17T00:41:11.577Z,0
2018-07-17T00:41:37.153Z,0
2018-07-17T00:42:02.740Z,0
2018-07-17T00:42:28.325Z,0
2018-07-17T00:42:53.916Z,0
2018-07-17T00:43:19.473Z,0
2018-07-17T00:43:45.049Z,0
2018-07-17T00:44:10.632Z,0
2018-07-17T00:44:36.202Z,0
2018-07-17T00:45:01.775Z,0
2018-07-17T00:45:27.358Z,0
2018-07-17T00:45:52.945Z,0
2018-07-17T00:46:18.537Z,0
2018-07-17T00:46:44.127Z,0
2018-07-17T00:47:09.694Z,0
2018-07-17T00:47:35.264Z,0
2018-07-17T00:48:00.910Z,0
2018-07-17T00:48:26.476Z,0
2018-07-17T00:48:52.032Z,0
2018-07-17T00:49:17.606Z,0
2018-07-17T00:49:43.169Z,0
2018-07-17T00:50:08.736Z,0
2018-07-17T00:50:34.350Z,0
2018-07-17T00:50:59.923Z,0
2018-07-17T00:51:25.523Z,0
2018-07-17T00:51:51.094Z,0
2018-07-17T00:52:16.663Z,0
2018-07-17T00:52:42.235Z,0
2018-07-17T00:53:07.827Z,0
2018-07-17T00:53:33.404Z,0
2018-07-17T00:53:58.960Z,0
2018-07-17T00:54:24.556Z,0
2018-07-17T00:54:50.157Z,0
2018-07-17T00:55:15.744Z,0
2018-07-17T00:55:41.354Z,0
2018-07-17T00:56:06.916Z,0
2018-07-17T00:56:32.463Z,0
2018-07-17T00:56:58.039Z,0
2018-07-17T00:57:23.611Z,0
2018-07-17T00:57:49.181Z,0
2018-07-17T00:58:14.750Z,0
2018-07-17T00:58:40.322Z,0
2018-07-17T00:59:05.880Z,0
2018-07-17T00:59:31.444Z,0
2018-07-17T00:59:57.015Z,0
2018-07-17T01:00:22.576Z,0
2018-07-17T01:00:48.135Z,0
2018-07-17T01:01:13.805Z,0
2018-07-17T01:01:39.310Z,0
2018-07-17T01:02:04.873Z,0
2018-07-17T01:02:30.446Z,0
2018-07-17T01:02:56.042Z,0
2018-07-17T01:03:21.644Z,0
2018-07-17T01:03:47.179Z,0
2018-07-17T01:04:12.742Z,0
2018-07-17T01:04:38.316Z,0
2018-07-17T01:05:03.910Z,0
2018-07-17T01:05:29.491Z,0
2018-07-17T01:05:55.055Z,0
2018-07-17T01:06:20.624Z,0
2018-07-17T01:06:46.203Z,0
2018-07-17T01:07:11.765Z,0
2018-07-17T01:07:37.353Z,0
2018-07-17T01:08:02.925Z,0
2018-07-17T01:08:28.510Z,0
2018-07-17T01:08:54.075Z,0
2018-07-17T01:09:19.642Z,0
2018-07-17T01:09:45.227Z,0
2018-07-17T01:10:10.817Z,0
2018-07-17T01:10:36.402Z,0
2018-07-17T01:11:01.992Z,0
2018-07-17T01:11:27.543Z,0
2018-07-17T01:11:53.116Z,0
2018-07-17T01:12:18.677Z,0
2018-07-17T01:12:44.250Z,0
2018-07-17T01:13:09.814Z,0
2018-07-17T01:13:35.401Z,0
2018-07-17T01:14:00.980Z,0
2018-07-17T01:14:26.550Z,0
2018-07-17T01:14:52.135Z,0
2018-07-17T01:15:17.704Z,0
2018-07-17T01:15:43.294Z,0
2018-07-17T01:16:08.868Z,0
2018-07-17T01:16:34.429Z,0
2018-07-17T01:17:00.019Z,0
2018-07-17T01:17:25.603Z,0
2018-07-17T01:17:51.165Z,0
2018-07-17T01:18:16.725Z,0
2018-07-17T01:18:42.285Z,0
2018-07-17T01:19:07.909Z,0
2018-07-17T01:19:33.459Z,0
2018-07-17T01:19:59.024Z,0
2018-07-17T01:20:24.587Z,0
2018-07-17T01:20:50.142Z,0
2018-07-17T01:21:15.721Z,0
2018-07-17T01:21:41.293Z,0
2018-07-17T01:22:06.863Z,0
2018-07-17T01:22:32.439Z,0
2018-07-17T01:22:58.019Z,0
2018-07-17T01:23:23.596Z,0
2018-07-17T01:23:49.143Z,0
2018-07-17T01:24:14.719Z,0
2018-07-17T01:24:40.288Z,0
2018-07-17T01:25:05.874Z,0
2018-07-17T01:25:31.435Z,0
2018-07-17T01:25:57.002Z,0
2018-07-17T01:26:22.579Z,0
2018-07-17T01:26:48.134Z,0
2018-07-17T01:27:13.699Z,0
2018-07-17T01:27:39.273Z,0
2018-07-17T01:28:04.835Z,0
2018-07-17T01:28:30.392Z,0
2018-07-17T01:28:55.961Z,0
2018-07-17T01:29:21.533Z,0
2018-07-17T01:29:47.101Z,0
2018-07-17T01:30:12.743Z,0
2018-07-17T01:30:38.244Z,0
2018-07-17T01:31:03.884Z,0
2018-07-17T01:31:29.401Z,0
2018-07-17T01:31:54.991Z,0
2018-07-17T01:32:20.556Z,0
2018-07-17T01:32:46.129Z,0
2018-07-17T01:33:11.700Z,0
2018-07-17T01:33:37.281Z,0
2018-07-17T01:34:02.866Z,0
2018-07-17T01:34:28.446Z,0
2018-07-17T01:34:54.030Z,0
2018-07-17T01:35:19.592Z,0
2018-07-17T01:35:45.160Z,0
2018-07-17T01:36:10.731Z,0
2018-07-17T01:36:36.288Z,0
2018-07-17T01:37:01.882Z,0
2018-07-17T01:37:27.465Z,0
2018-07-17T01:37:53.023Z,0
2018-07-17T01:38:18.622Z,0
2018-07-17T01:38:44.160Z,0
2018-07-17T01:39:09.723Z,0
2018-07-17T01:39:35.303Z,0
2018-07-17T01:40:00.886Z,0
2018-07-17T01:40:26.446Z,0
2018-07-17T01:40:52.016Z,0
2018-07-17T01:41:17.620Z,0
2018-07-17T01:41:43.192Z,0
2018-07-17T01:42:08.767Z,0
2018-07-17T01:42:34.315Z,0
2018-07-17T01:42:59.944Z,0
2018-07-17T01:43:25.478Z,0
2018-07-17T01:43:51.044Z,0
2018-07-17T01:44:16.622Z,0
2018-07-17T01:44:42.194Z,0
2018-07-17T01:45:07.772Z,0
2018-07-17T01:45:33.316Z,0
2018-07-17T01:45:58.906Z,0
2018-07-17T01:46:24.493Z,0
2018-07-17T01:46:50.082Z,0
2018-07-17T01:47:15.651Z,0
2018-07-17T01:47:41.205Z,0
2018-07-17T01:48:06.786Z,0
2018-07-17T01:48:32.339Z,0
2018-07-17T01:48:57.916Z,0
2018-07-17T01:49:23.494Z,0
2018-07-17T01:49:49.070Z,0
2018-07-17T01:50:14.642Z,0
2018-07-17T01:50:40.216Z,0
2018-07-17T01:51:05.788Z,0
2018-07-17T01:51:31.387Z,0
2018-07-17T01:51:56.958Z,0
2018-07-17T01:52:22.513Z,0
2018-07-17T01:52:48.087Z,0
2018-07-17T01:53:13.676Z,0
2018-07-17T01:53:39.260Z,0
2018-07-17T01:54:04.836Z,0
2018-07-17T01:54:30.392Z,0
2018-07-17T01:54:55.978Z,0
2018-07-17T01:55:21.568Z,0
2018-07-17T01:55:47.170Z,0
2018-07-17T01:56:12.744Z,0
2018-07-17T01:56:38.309Z,0
2018-07-17T01:57:03.872Z,0
2018-07-17T01:57:29.429Z,0
2018-07-17T01:57:55.003Z,0
2018-07-17T01:58:20.567Z,0
2018-07-17T01:58:46.137Z,0
2018-07-17T01:59:11.702Z,0
2018-07-17T01:59:37.276Z,0
2018-07-17T02:00:02.855Z,0
2018-07-17T02:00:28.408Z,0
2018-07-17T02:00:53.976Z,0
2018-07-17T02:01:19.554Z,0
2018-07-17T02:01:45.183Z,0
2018-07-17T02:02:10.698Z,0
2018-07-17T02:02:36.280Z,0
2018-07-17T02:03:01.858Z,0
2018-07-17T02:03:27.418Z,0
2018-07-17T02:03:53.004Z,0
2018-07-17T02:04:18.568Z,0
2018-07-17T02:04:44.220Z,0
2018-07-17T02:05:09.727Z,0
2018-07-17T02:05:35.308Z,0
2018-07-17T02:06:00.872Z,0
2018-07-17T02:06:26.442Z,0
2018-07-17T02:06:52.024Z,0
2018-07-17T02:07:17.606Z,0
2018-07-17T02:07:43.170Z,0
2018-07-17T02:08:08.728Z,0
2018-07-17T02:08:34.311Z,0
2018-07-17T02:08:59.882Z,0
2018-07-17T02:09:25.456Z,0
2018-07-17T02:09:51.047Z,0
2018-07-17T02:10:16.606Z,0
2018-07-17T02:10:42.173Z,0
2018-07-17T02:11:07.748Z,0
2018-07-17T02:11:33.318Z,0
2018-07-17T02:11:58.870Z,0
2018-07-17T02:12:24.460Z,0
2018-07-17T02:12:50.055Z,0
2018-07-17T02:13:15.621Z,0
2018-07-17T02:13:41.200Z,0
2018-07-17T02:14:06.778Z,0
2018-07-17T02:14:32.364Z,0
2018-07-17T02:14:57.931Z,0
2018-07-17T02:15:23.513Z,0
2018-07-17T02:15:49.084Z,0
2018-07-17T02:16:14.680Z,0
2018-07-17T02:16:40.249Z,0
2018-07-17T02:17:05.807Z,0
2018-07-17T02:17:31.376Z,0
2018-07-17T02:17:56.958Z,0
2018-07-17T02:18:22.508Z,0
2018-07-17T02:18:48.085Z,0
2018-07-17T02:19:13.652Z,0
2018-07-17T02:19:39.225Z,0
2018-07-17T02:20:04.791Z,0
2018-07-17T02:20:30.375Z,0
2018-07-17T02:20:55.945Z,0
2018-07-17T02:21:21.537Z,0
2018-07-17T02:21:47.101Z,0
2018-07-17T02:22:12.680Z,0
2018-07-17T02:22:38.255Z,0
2018-07-17T02:23:03.835Z,0
2018-07-17T02:23:29.388Z,0
2018-07-17T02:23:54.979Z,0
2018-07-17T02:24:20.556Z,0
2018-07-17T02:24:46.142Z,0
2018-07-17T02:25:11.712Z,0
2018-07-17T02:25:37.275Z,0
2018-07-17T02:26:02.892Z,0
2018-07-17T02:26:28.442Z,0
2018-07-17T02:26:54.042Z,0
2018-07-17T02:27:19.616Z,0
2018-07-17T02:27:45.174Z,0
2018-07-17T02:28:10.744Z,0
2018-07-17T02:28:36.312Z,0
2018-07-17T02:29:01.866Z,0
2018-07-17T02:29:27.453Z,0
2018-07-17T02:29:53.046Z,0
2018-07-17T02:30:18.604Z,0
2018-07-17T02:30:44.196Z,0
2018-07-17T02:31:09.765Z,0
2018-07-17T02:31:35.358Z,0
2018-07-17T02:32:00.946Z,0
2018-07-17T02:32:26.530Z,0
2018-07-17T02:32:52.100Z,0
2018-07-17T02:33:17.678Z,0
2018-07-17T02:33:43.267Z,0
2018-07-17T02:34:08.850Z,0
2018-07-17T02:34:34.434Z,0
2018-07-17T02:35:00.000Z,0
2018-07-17T02:35:25.567Z,0
2018-07-17T02:35:51.142Z,0
2018-07-17T02:36:16.729Z,0
2018-07-17T02:36:42.300Z,0
2018-07-17T02:37:07.873Z,0
2018-07-17T02:37:33.462Z,0
2018-07-17T02:37:59.072Z,0
2018-07-17T02:38:24.660Z,0
2018-07-17T02:38:50.263Z,0
2018-07-17T02:39:15.826Z,0
2018-07-17T02:39:41.396Z,0
2018-07-17T02:40:06.941Z,0
2018-07-17T02:40:32.535Z,0
2018-07-17T02:40:58.109Z,0
2018-07-17T02:41:23.684Z,0
2018-07-17T02:41:49.246Z,0
2018-07-17T02:42:14.864Z,0
2018-07-17T02:42:40.394Z,0
2018-07-17T02:43:05.942Z,0
2018-07-17T02:43:31.526Z,0
2018-07-17T02:43:57.094Z,0
2018-07-17T02:44:22.666Z,0
2018-07-17T02:44:48.255Z,0
2018-07-17T02:45:13.829Z,0
2018-07-17T02:45:39.427Z,0
2018-07-17T02:46:04.982Z,0
2018-07-17T02:46:30.532Z,0
2018-07-17T02:46:56.115Z,0
2018-07-17T02:47:21.683Z,0
2018-07-17T02:47:47.242Z,0
2018-07-17T02:48:12.809Z,0
2018-07-17T02:48:38.378Z,0
2018-07-17T02:49:03.938Z,0
2018-07-17T02:49:29.512Z,0
2018-07-17T02:49:55.077Z,0
2018-07-17T02:50:20.626Z,0
2018-07-17T02:50:46.228Z,0
2018-07-17T02:51:11.778Z,0
2018-07-17T02:51:37.348Z,0
2018-07-17T02:52:02.928Z,0
2018-07-17T02:52:28.506Z,0
2018-07-17T02:52:54.120Z,0
2018-07-17T02:53:19.738Z,0
2018-07-17T02:53:45.305Z,0
2018-07-17T02:54:10.880Z,0
2018-07-17T02:54:36.438Z,0
2018-07-17T02:55:02.018Z,0
2018-07-17T02:55:27.588Z,0
2018-07-17T02:55:53.156Z,0
2018-07-17T02:56:18.734Z,0
2018-07-17T02:56:44.314Z,0
2018-07-17T02:57:09.854Z,0
2018-07-17T02:57:35.416Z,0
2018-07-17T02:58:00.978Z,0
2018-07-17T02:58:26.540Z,0
2018-07-17T02:58:52.127Z,0
2018-07-17T02:59:17.722Z,0
2018-07-17T02:59:43.306Z,0
2018-07-17T03:00:08.876Z,0
2018-07-17T03:00:34.433Z,0
2018-07-17T03:01:00.013Z,0
2018-07-17T03:01:25.616Z,0
2018-07-17T03:01:51.194Z,0
2018-07-17T03:02:16.758Z,0
2018-07-17T03:02:42.322Z,0
2018-07-17T03:03:07.908Z,0
2018-07-17T03:03:33.511Z,0
2018-07-17T03:03:59.106Z,0
2018-07-17T03:04:24.712Z,0
2018-07-17T03:04:50.273Z,0
2018-07-17T03:05:15.846Z,0
2018-07-17T03:05:41.411Z,0
2018-07-17T03:06:07.008Z,0
2018-07-17T03:06:32.563Z,0
2018-07-17T03:06:58.194Z,0
2018-07-17T03:07:23.698Z,0
2018-07-17T03:07:49.257Z,0
2018-07-17T03:08:14.822Z,0
2018-07-17T03:08:40.406Z,0
2018-07-17T03:09:05.976Z,0
2018-07-17T03:09:31.526Z,0
2018-07-17T03:09:57.093Z,0
2018-07-17T03:10:22.661Z,0
2018-07-17T03:10:48.215Z,0
2018-07-17T03:11:13.794Z,0
2018-07-17T03:11:39.337Z,0
2018-07-17T03:12:04.895Z,0
2018-07-17T03:12:30.458Z,0
2018-07-17T03:12:56.022Z,0
2018-07-17T03:13:21.597Z,0
2018-07-17T03:13:47.155Z,0
2018-07-17T03:14:12.710Z,0
2018-07-17T03:14:38.301Z,0
2018-07-17T03:15:03.893Z,0
2018-07-17T03:15:29.454Z,0
2018-07-17T03:15:55.018Z,0
2018-07-17T03:16:20.588Z,0
2018-07-17T03:16:46.157Z,0
2018-07-17T03:17:11.716Z,0
2018-07-17T03:17:37.302Z,0
2018-07-17T03:18:02.858Z,0
2018-07-17T03:18:28.431Z,0
2018-07-17T03:18:53.989Z,0
2018-07-17T03:19:19.552Z,0
2018-07-17T03:19:45.116Z,0
2018-07-17T03:20:10.700Z,0
2018-07-17T03:20:36.300Z,0
2018-07-17T03:21:01.859Z,0
2018-07-17T03:21:27.436Z,0
2018-07-17T03:21:52.994Z,0
2018-07-17T03:22:18.582Z,0
2018-07-17T03:22:44.179Z,0
2018-07-17T03:23:09.728Z,4
2018-07-17T03:23:35.310Z,4
2018-07-17T03:24:00.892Z,4
2018-07-17T03:24:26.475Z,4
2018-07-17T03:24:52.022Z,4
2018-07-17T03:25:17.591Z,4
2018-07-17T03:25:43.180Z,4
2018-07-17T03:26:08.746Z,4
2018-07-17T03:26:34.300Z,4
2018-07-17T03:26:59.874Z,4
2018-07-17T03:27:25.417Z,4
2018-07-17T03:27:51.004Z,4
2018-07-17T03:28:16.619Z,4
2018-07-17T03:28:42.195Z,4
2018-07-17T03:29:07.778Z,4
2018-07-17T03:29:33.364Z,0
2018-07-17T03:29:58.941Z,0
2018-07-17T03:30:24.522Z,0
2018-07-17T03:30:50.112Z,0
2018-07-17T03:31:15.685Z,0
2018-07-17T03:31:41.281Z,0
2018-07-17T03:32:06.842Z,0
2018-07-17T03:32:32.406Z,0
2018-07-17T03:32:57.977Z,0
2018-07-17T03:33:23.535Z,0
2018-07-17T03:33:49.097Z,4
2018-07-17T03:34:14.680Z,4
2018-07-17T03:34:40.246Z,4
2018-07-17T03:35:05.812Z,4
2018-07-17T03:35:31.392Z,4
2018-07-17T03:35:56.963Z,4
2018-07-17T03:36:22.576Z,4
2018-07-17T03:36:48.092Z,4
2018-07-17T03:37:13.672Z,4
2018-07-17T03:37:39.233Z,4
2018-07-17T03:38:04.795Z,0
2018-07-17T03:38:30.386Z,4
2018-07-17T03:38:55.957Z,4
2018-07-17T03:39:21.532Z,4
2018-07-17T03:39:47.098Z,4
2018-07-17T03:40:12.687Z,4
2018-07-17T03:40:38.272Z,4
2018-07-17T03:41:03.849Z,4
2018-07-17T03:41:29.457Z,4
2018-07-17T03:41:55.007Z,8
2018-07-17T03:42:20.586Z,8
2018-07-17T03:42:46.219Z,8
2018-07-17T03:43:11.752Z,8
2018-07-17T03:43:37.296Z,8
2018-07-17T03:44:02.900Z,8
2018-07-17T03:44:28.500Z,8
2018-07-17T03:44:54.062Z,8
2018-07-17T03:45:19.633Z,4
2018-07-17T03:45:45.195Z,4
2018-07-17T03:46:10.770Z,4
2018-07-17T03:46:36.331Z,4
2018-07-17T03:47:01.924Z,4
2018-07-17T03:47:27.487Z,4
2018-07-17T03:47:53.067Z,4
2018-07-17T03:48:18.672Z,4
2018-07-17T03:48:44.235Z,4
2018-07-17T03:49:09.803Z,4
2018-07-17T03:49:35.385Z,4
2018-07-17T03:50:00.966Z,4
2018-07-17T03:50:26.553Z,4
2018-07-17T03:50:52.106Z,8
2018-07-17T03:51:17.685Z,8
2018-07-17T03:51:43.260Z,8
2018-07-17T03:52:08.829Z,8
2018-07-17T03:52:34.389Z,8
2018-07-17T03:52:59.962Z,8
2018-07-17T03:53:25.567Z,8
2018-07-17T03:53:51.145Z,8
2018-07-17T03:54:16.740Z,8
2018-07-17T03:54:42.304Z,8
2018-07-17T03:55:07.876Z,8
2018-07-17T03:55:33.455Z,8
2018-07-17T03:55:59.029Z,8
2018-07-17T03:56:24.598Z,4
2018-07-17T03:56:50.165Z,8
2018-07-17T03:57:15.758Z,8
2018-07-17T03:57:41.326Z,8
2018-07-17T03:58:06.898Z,8
2018-07-17T03:58:32.472Z,8
2018-07-17T03:58:58.063Z,8
2018-07-17T03:59:23.645Z,8
2018-07-17T03:59:49.195Z,8
2018-07-17T04:00:14.775Z,8
2018-07-17T04:00:40.358Z,8
2018-07-17T04:01:05.956Z,8
2018-07-17T04:01:31.562Z,8
2018-07-17T04:01:57.122Z,8
2018-07-17T04:02:22.722Z,8
2018-07-17T04:02:48.334Z,8
2018-07-17T04:03:13.861Z,8
2018-07-17T04:03:39.460Z,8
2018-07-17T04:04:05.065Z,8
2018-07-17T04:04:30.635Z,8
2018-07-17T04:04:56.200Z,8
2018-07-17T04:05:21.764Z,8
2018-07-17T04:05:47.359Z,8
2018-07-17T04:06:12.944Z,12
2018-07-17T04:06:38.493Z,12
2018-07-17T04:07:04.052Z,12
2018-07-17T04:07:29.644Z,12
2018-07-17T04:07:55.191Z,12
2018-07-17T04:08:20.762Z,8
2018-07-17T04:08:46.405Z,8
2018-07-17T04:09:11.886Z,8
2018-07-17T04:09:37.450Z,8
2018-07-17T04:10:03.058Z,8
2018-07-17T04:10:28.636Z,8
2018-07-17T04:10:54.184Z,8
2018-07-17T04:11:19.759Z,12
2018-07-17T04:11:45.316Z,12
2018-07-17T04:12:10.884Z,12
2018-07-17T04:12:36.444Z,12
2018-07-17T04:13:02.044Z,12
2018-07-17T04:13:27.643Z,12
2018-07-17T04:13:53.161Z,12
2018-07-17T04:14:18.741Z,12
2018-07-17T04:14:44.312Z,8
2018-07-17T04:15:09.889Z,8
2018-07-17T04:15:35.457Z,8
2018-07-17T04:16:01.036Z,12
2018-07-17T04:16:26.670Z,12
2018-07-17T04:16:52.246Z,12
2018-07-17T04:17:17.840Z,12
2018-07-17T04:17:43.429Z,12
2018-07-17T04:18:08.998Z,12
2018-07-17T04:18:34.558Z,12
2018-07-17T04:19:00.147Z,12
2018-07-17T04:19:25.742Z,12
2018-07-17T04:19:51.342Z,12
2018-07-17T04:20:16.928Z,12
2018-07-17T04:20:42.504Z,16
2018-07-17T04:21:08.080Z,16
2018-07-17T04:21:33.652Z,16
2018-07-17T04:21:59.233Z,16
2018-07-17T04:22:24.805Z,16
2018-07-17T04:22:50.357Z,12
2018-07-17T04:23:15.952Z,12
2018-07-17T04:23:41.535Z,12
2018-07-17T04:24:07.120Z,12
2018-07-17T04:24:32.765Z,12
2018-07-17T04:24:58.339Z,12
2018-07-17T04:25:23.900Z,12
2018-07-17T04:25:49.459Z,12
2018-07-17T04:26:15.052Z,12
2018-07-17T04:26:40.642Z,12
2018-07-17T04:27:06.234Z,16
2018-07-17T04:27:31.803Z,16
2018-07-17T04:27:57.374Z,16
2018-07-17T04:28:22.957Z,16
2018-07-17T04:28:48.552Z,12
2018-07-17T04:29:14.162Z,12
2018-07-17T04:29:39.753Z,12
2018-07-17T04:30:05.354Z,12
2018-07-17T04:30:30.942Z,12
2018-07-17T04:30:56.534Z,12
2018-07-17T04:31:22.124Z,12
2018-07-17T04:31:47.707Z,12
2018-07-17T04:32:13.256Z,12
2018-07-17T04:32:38.836Z,12
2018-07-17T04:33:04.400Z,12
2018-07-17T04:33:29.957Z,8
2018-07-17T04:33:55.554Z,12
2018-07-17T04:34:21.128Z,12
2018-07-17T04:34:46.742Z,8
2018-07-17T04:35:12.300Z,8
2018-07-17T04:35:37.862Z,12
2018-07-17T04:36:03.440Z,12
2018-07-17T04:36:29.018Z,12
2018-07-17T04:36:54.571Z,8
2018-07-17T04:37:20.158Z,8
2018-07-17T04:37:45.773Z,8
2018-07-17T04:38:11.345Z,8
2018-07-17T04:38:36.932Z,8
2018-07-17T04:39:02.525Z,8
2018-07-17T04:39:28.098Z,12
2018-07-17T04:39:53.664Z,12
2018-07-17T04:40:19.255Z,12
2018-07-17T04:40:44.838Z,8
2018-07-17T04:41:10.434Z,8
2018-07-17T04:41:36.024Z,8
2018-07-17T04:42:01.578Z,8
2018-07-17T04:42:27.155Z,8
2018-07-17T04:42:52.737Z,8
2018-07-17T04:43:18.338Z,8
2018-07-17T04:43:43.896Z,8
2018-07-17T04:44:09.481Z,20
2018-07-17T04:44:35.036Z,24
2018-07-17T04:45:00.613Z,24
2018-07-17T04:45:26.231Z,24
2018-07-17T04:45:51.826Z,24
2018-07-17T04:46:17.426Z,24
2018-07-17T04:46:42.993Z,24
2018-07-17T04:47:08.550Z,24
2018-07-17T04:47:34.148Z,24
2018-07-17T04:47:59.727Z,24
2018-07-17T04:48:25.320Z,24
2018-07-17T04:48:50.912Z,24
2018-07-17T04:49:16.452Z,24
2018-07-17T04:49:42.045Z,24
2018-07-17T04:50:07.626Z,24
2018-07-17T04:50:33.214Z,24
2018-07-17T04:50:58.781Z,28
2018-07-17T04:51:24.352Z,28
2018-07-17T04:51:49.928Z,24
2018-07-17T04:52:15.519Z,28
2018-07-17T04:52:41.098Z,28
2018-07-17T04:53:06.652Z,28
2018-07-17T04:53:32.300Z,28
2018-07-17T04:53:57.880Z,28
2018-07-17T04:54:23.434Z,28
2018-07-17T04:54:49.036Z,32
2018-07-17T04:55:14.612Z,32
2018-07-17T04:55:40.189Z,28
2018-07-17T04:56:05.739Z,28
2018-07-17T04:56:31.324Z,32
2018-07-17T04:56:56.888Z,32
2018-07-17T04:57:22.468Z,28
2018-07-17T04:57:48.062Z,32
2018-07-17T04:58:13.636Z,32
2018-07-17T04:58:39.226Z,32
2018-07-17T04:59:04.816Z,32
2018-07-17T04:59:30.360Z,32
2018-07-17T04:59:55.956Z,32
2018-07-17T05:00:21.520Z,36
2018-07-17T05:00:47.101Z,32
2018-07-17T05:01:12.660Z,36
2018-07-17T05:01:38.332Z,32
2018-07-17T05:02:03.808Z,36
2018-07-17T05:02:29.378Z,32
2018-07-17T05:02:54.944Z,36
2018-07-17T05:03:20.524Z,36
2018-07-17T05:03:46.106Z,36
2018-07-17T05:04:11.653Z,36
2018-07-17T05:04:37.228Z,36
2018-07-17T05:05:02.820Z,36
2018-07-17T05:05:28.412Z,36
2018-07-17T05:05:53.979Z,36
2018-07-17T05:06:19.564Z,36
2018-07-17T05:06:45.135Z,36
2018-07-17T05:07:10.712Z,36
2018-07-17T05:07:36.335Z,32
2018-07-17T05:08:01.912Z,32
2018-07-17T05:08:27.475Z,32
2018-07-17T05:08:53.038Z,32
2018-07-17T05:09:18.630Z,32
2018-07-17T05:09:44.216Z,32
2018-07-17T05:10:09.807Z,32
2018-07-17T05:10:35.390Z,32
2018-07-17T05:11:00.966Z,32
2018-07-17T05:11:26.533Z,32
2018-07-17T05:11:52.119Z,32
2018-07-17T05:12:17.709Z,32
2018-07-17T05:12:43.324Z,36
2018-07-17T05:13:08.910Z,36
2018-07-17T05:13:34.492Z,32
2018-07-17T05:14:00.064Z,32
2018-07-17T05:14:25.624Z,36
2018-07-17T05:14:51.208Z,36
2018-07-17T05:15:16.805Z,36
2018-07-17T05:15:42.357Z,32
2018-07-17T05:16:07.932Z,32
2018-07-17T05:16:33.516Z,36
2018-07-17T05:16:59.103Z,36
2018-07-17T05:17:24.675Z,40
2018-07-17T05:17:50.230Z,36
2018-07-17T05:18:15.815Z,36
2018-07-17T05:18:41.406Z,40
2018-07-17T05:19:07.002Z,40
2018-07-17T05:19:32.567Z,40
2018-07-17T05:19:58.149Z,40
2018-07-17T05:20:23.773Z,40
2018-07-17T05:20:49.316Z,40
2018-07-17T05:21:14.909Z,40
2018-07-17T05:21:40.507Z,44
2018-07-17T05:22:06.109Z,44
2018-07-17T05:22:31.677Z,48
2018-07-17T05:22:57.274Z,48
2018-07-17T05:23:22.824Z,52
2018-07-17T05:23:48.405Z,52
2018-07-17T05:24:13.984Z,56
2018-07-17T05:24:39.565Z,60
2018-07-17T05:25:05.125Z,64
2018-07-17T05:25:30.699Z,68
2018-07-17T05:25:56.268Z,72
2018-07-17T05:26:21.857Z,76
2018-07-17T05:26:47.423Z,80
2018-07-17T05:27:13.049Z,80
2018-07-17T05:27:38.609Z,84
2018-07-17T05:28:04.180Z,88
2018-07-17T05:28:29.749Z,92
2018-07-17T05:28:55.309Z,96
2018-07-17T05:29:20.906Z,100
2018-07-17T05:29:46.493Z,100
2018-07-17T05:30:12.063Z,104
2018-07-17T05:30:37.642Z,112
2018-07-17T05:31:03.220Z,112
2018-07-17T05:31:28.818Z,108
2018-07-17T05:31:54.396Z,112
2018-07-17T05:32:19.935Z,112
2018-07-17T05:32:45.505Z,112
2018-07-17T05:33:11.099Z,108
2018-07-17T05:33:36.700Z,112
2018-07-17T05:34:02.304Z,112
2018-07-17T05:34:27.896Z,116
2018-07-17T05:34:53.451Z,116
2018-07-17T05:35:19.067Z,124
2018-07-17T05:35:44.616Z,128
2018-07-17T05:36:10.188Z,128
2018-07-17T05:36:35.806Z,128
2018-07-17T05:37:01.405Z,128
2018-07-17T05:37:26.994Z,128
2018-07-17T05:37:52.600Z,128
2018-07-17T05:38:18.220Z,128
2018-07-17T05:38:43.808Z,128
2018-07-17T05:39:09.398Z,136
2018-07-17T05:39:34.995Z,136
2018-07-17T05:40:00.564Z,136
2018-07-17T05:40:26.111Z,140
2018-07-17T05:40:51.705Z,140
2018-07-17T05:41:17.297Z,132
2018-07-17T05:41:42.900Z,124
2018-07-17T05:42:08.502Z,116
2018-07-17T05:42:34.106Z,112
2018-07-17T05:42:59.712Z,112
2018-07-17T05:43:25.307Z,112
2018-07-17T05:43:50.904Z,112
2018-07-17T05:44:16.514Z,116
2018-07-17T05:44:42.099Z,124
2018-07-17T05:45:07.703Z,128
2018-07-17T05:45:33.308Z,136
2018-07-17T05:45:58.913Z,132
2018-07-17T05:46:24.537Z,132
2018-07-17T05:46:50.111Z,132
2018-07-17T05:47:15.705Z,132
2018-07-17T05:47:41.309Z,132
2018-07-17T05:48:06.868Z,136
2018-07-17T05:48:32.454Z,132
2018-07-17T05:48:58.012Z,132
2018-07-17T05:49:23.593Z,132
2018-07-17T05:49:49.204Z,132
2018-07-17T05:50:14.803Z,132
2018-07-17T05:50:40.356Z,132
2018-07-17T05:51:05.913Z,132
2018-07-17T05:51:31.534Z,136
2018-07-17T05:51:57.154Z,136
2018-07-17T05:52:22.703Z,136
2018-07-17T05:52:48.291Z,136
2018-07-17T05:53:13.877Z,140
2018-07-17T05:53:39.440Z,136
2018-07-17T05:54:05.007Z,136
2018-07-17T05:54:30.590Z,136
2018-07-17T05:54:56.132Z,128
2018-07-17T05:55:21.719Z,124
2018-07-17T05:55:47.298Z,120
2018-07-17T05:56:12.870Z,120
2018-07-17T05:56:38.431Z,120
2018-07-17T05:57:04.020Z,116
2018-07-17T05:57:29.602Z,116
2018-07-17T05:57:55.207Z,116
2018-07-17T05:58:20.773Z,116
2018-07-17T05:58:46.347Z,112
2018-07-17T05:59:11.907Z,112
2018-07-17T05:59:37.484Z,116
2018-07-17T06:00:03.077Z,116
2018-07-17T06:00:28.631Z,120
2018-07-17T06:00:54.217Z,120
2018-07-17T06:01:19.810Z,128
2018-07-17T06:01:45.374Z,128
2018-07-17T06:02:10.950Z,128
2018-07-17T06:02:36.527Z,124
2018-07-17T06:03:02.131Z,128
2018-07-17T06:03:27.747Z,124
2018-07-17T06:03:53.290Z,124
2018-07-17T06:04:18.876Z,124
2018-07-17T06:04:44.425Z,124
2018-07-17T06:05:10.005Z,120
2018-07-17T06:05:35.587Z,120
2018-07-17T06:06:01.157Z,120
2018-07-17T06:06:26.724Z,116
2018-07-17T06:06:52.315Z,112
2018-07-17T06:07:17.890Z,112
2018-07-17T06:07:43.478Z,112
2018-07-17T06:08:09.039Z,112
2018-07-17T06:08:34.598Z,108
2018-07-17T06:09:00.202Z,112
2018-07-17T06:09:25.791Z,108
2018-07-17T06:09:51.368Z,108
2018-07-17T06:10:16.990Z,100
2018-07-17T06:10:42.495Z,100
2018-07-17T06:11:08.094Z,96
2018-07-17T06:11:33.670Z,96
2018-07-17T06:11:59.224Z,96
2018-07-17T06:12:24.805Z,100